MAPA DE AEROPUERTO

INFORMACIÓN METAR y TAF

METAR FOR LEAS
ADDS - METARS form results

(1116 UTC 07 May 2021)
Data provider http://aviationweather.gov/metar/data/
 
METAR text: LEAS 071100Z VRB06KT 9999 FEW038 18/11 Q1019 NOSIG
Conditions at: LEAS (ASTURIAS/AVILES , ES) observed 1100 UTC 07 May 2021
Temperature: 18.0°C (64°F)
Dewpoint: 11.0°C (52°F) [RH = 64%]
Pressure (altimeter): 30.09 inches Hg (1019.0 mb)
Winds: variable direction winds at 7 MPH (6 knots; 3.1 m/s)
Visibility: 6 or more miles (10+ km)
Ceiling: at least 12,000 feet AGL
Clouds: few clouds at 3800 feet AGL
Weather: no significant weather observed at this time

METAR text: LEAS 071030Z 35006KT 290V060 9999 FEW036 18/11 Q1019 NOSIG
Conditions at: LEAS (ASTURIAS/AVILES , ES) observed 1030 UTC 07 May 2021
Temperature: 18.0°C (64°F)
Dewpoint: 11.0°C (52°F) [RH = 64%]
Pressure (altimeter): 30.09 inches Hg (1019.0 mb)
Winds: from the N (350 degrees) at 7 MPH (6 knots; 3.1 m/s)
Visibility: 6 or more miles (10+ km)
Ceiling: at least 12,000 feet AGL
Clouds: few clouds at 3600 feet AGL
Weather: no significant weather observed at this time

Forecast for: LEAS (ASTURIAS/AVILES , ES)
Text: TAF LEAS 070800Z 0709/0809 VRB06KT CAVOK TX18/0713Z TN10/0805Z
Forecast period: 0900 UTC 07 May 2021 to 0900 UTC 08 May 2021
Forecast type: FROM: standard forecast or significant change
Winds: variable direction winds at 7 MPH (6 knots; 3.1 m/s)
Visibility: 6 or more miles (10+ km)
Ceiling: unknown
Clouds: missing
Weather: no significant weather forecast for this period
Text: PROB30
Forecast period: 1100 to 1500 UTC 07 May 2021
Forecast type: TEMPORARY: The following changes expected for less than half the time period
Winds: from the N (360 degrees) at 12 MPH (10 knots; 5.1 m/s)
Visibility: missing
Ceiling: unknown
Clouds: missing
Weather: no significant weather forecast for this period